Paw Paw, Michigan
Current Conditions -  °F | °C
As of 12:53 AM on Thursday 29 Jan 2015 (Local Time) from KAZO Reporting Station
Clear Clear  
Wind Chill: 18°   Ceiling: Unl
Heat Index: 28°   Visibility: 10mi
Dew Point: 17°   Wind: 12mph
Humidity: 63%   Direction: 160°SSE
Pressure: 29.95"   Gusts: NA
Location:  42.22°N, 85.89°W
Report Text: KAZO 290553Z AUTO 16010KT 10SM CLR M02/M08 A2995 RMK AO2 SLP153 T10221083 11022 21039 58026
Loading
Personal Weather Stations






























Interactive Weather Map New forecast layout! Learn more

10-Day Weather Forecast

Advertisements
Track Severe Weather on mobile